This is the latest recevied weather packets stored in our database for station/object W2GLD-13. If no packets are shown the sender has not sent any weather packets the latest 10 day(s).
| Time | Temp. | Humidity | Pressure | Rain* | Wind** | Luminosity | Snow |
|---|---|---|---|---|---|---|---|
| 1778085905 | 8.89° C | 55% | 1011.7 hPa | 0 mm | - | - | - |
| 1778085005 | 8.89° C | 55% | 1011.7 hPa | 0 mm | - | - | - |
| 1778084105 | 8.89° C | 55% | 1011.7 hPa | 0 mm | - | - | - |
| 1778083205 | 8.33° C | 59% | 1011.3 hPa | 0 mm | - | - | - |
| 1778082306 | 8.33° C | 59% | 1011.3 hPa | 0 mm | - | - | - |
| 1778081406 | 8.33° C | 59% | 1011.3 hPa | 0 mm | - | - | - |
| 1778080506 | 8.33° C | 59% | 1011.3 hPa | 0 mm | - | - | - |
| 1778079606 | 7.78° C | 67% | 1010.4 hPa | 0 mm | - | - | - |
| 1778078705 | 7.78° C | 67% | 1010.4 hPa | 0 mm | - | - | - |
| 1778077805 | 7.78° C | 67% | 1010.4 hPa | 0 mm | - | - | - |
| 1778076905 | 7.78° C | 67% | 1010.4 hPa | 0 mm | - | - | - |
| 1778076005 | 6.67° C | 63% | 1009.9 hPa | 0 mm | - | - | - |
| 1778075105 | 6.67° C | 63% | 1009.9 hPa | 0 mm | - | - | - |
| 1778074206 | 6.67° C | 63% | 1009.9 hPa | 0 mm | - | - | - |
| 1778073306 | 6.67° C | 63% | 1009.9 hPa | 0 mm | - | - | - |
| 1778072406 | 5° C | 69% | 1009.1 hPa | 0 mm | - | - | - |
| 1778071506 | 5° C | 69% | 1009.1 hPa | 0 mm | - | - | - |
| 1778070606 | 5° C | 69% | 1009.1 hPa | 0 mm | - | - | - |
| 1778069705 | 5° C | 69% | 1009.1 hPa | 0 mm | - | - | - |
| 1778068805 | 5.56° C | 74% | 1008.7 hPa | 0 mm | - | - | - |
| 1778067905 | 5.56° C | 74% | 1008.7 hPa | 0 mm | - | - | - |
| 1778067005 | 5.56° C | 74% | 1008.7 hPa | 0 mm | - | - | - |
| 1778066106 | 5.56° C | 74% | 1008.7 hPa | 0 mm | - | - | - |
| 1778065206 | 7.22° C | 65% | 1008.1 hPa | 0 mm | - | - | - |
| 1778064306 | 7.22° C | 65% | 1008.1 hPa | 0 mm | - | - | - |
* Rain latest hour (hover to see other rain measurements)
** Current wind speed in m/s (hover to see current wind gust speed)